createdAt,value
2018-05-24T00:00:57.922Z,16.16
2018-05-24T00:01:57.845Z,16.08
2018-05-24T00:02:57.778Z,16.10
2018-05-24T00:03:57.697Z,16.14
2018-05-24T00:04:57.632Z,16.07
2018-05-24T00:05:57.547Z,16.06
2018-05-24T00:06:57.481Z,16.10
2018-05-24T00:07:57.491Z,16.12
2018-05-24T00:08:57.336Z,16.18
2018-05-24T00:09:57.253Z,16.10
2018-05-24T00:10:57.199Z,16.16
2018-05-24T00:11:57.106Z,16.08
2018-05-24T00:12:58.107Z,16.16
2018-05-24T00:13:56.967Z,16.16
2018-05-24T00:14:56.897Z,16.22
2018-05-24T00:15:56.817Z,16.20
2018-05-24T00:16:56.750Z,16.08
2018-05-24T00:17:56.671Z,16.18
2018-05-24T00:18:56.608Z,16.10
2018-05-24T00:19:56.528Z,16.08
2018-05-24T00:20:56.461Z,16.23
2018-05-24T00:21:56.381Z,16.20
2018-05-24T00:22:56.319Z,16.20
2018-05-24T00:23:56.231Z,16.18
2018-05-24T00:24:56.164Z,16.23
2018-05-24T00:25:56.082Z,16.20
2018-05-24T00:26:56.020Z,16.15
2018-05-24T00:27:55.940Z,16.14
2018-05-24T00:28:55.882Z,16.22
2018-05-24T00:29:55.791Z,16.22
2018-05-24T00:30:55.730Z,16.23
2018-05-24T00:31:55.647Z,16.23
2018-05-24T00:32:55.579Z,16.15
2018-05-24T00:33:55.505Z,16.12
2018-05-24T00:34:55.438Z,16.23
2018-05-24T00:35:55.354Z,16.22
2018-05-24T00:36:55.284Z,16.15
2018-05-24T00:37:55.206Z,16.18
2018-05-24T00:38:55.141Z,16.15
2018-05-24T00:39:55.060Z,16.07
2018-05-24T00:40:54.993Z,16.04
2018-05-24T00:41:54.913Z,16.06
2018-05-24T00:42:54.845Z,15.97
2018-05-24T00:43:54.765Z,15.99
2018-05-24T00:44:54.703Z,15.96
2018-05-24T00:45:54.620Z,16.04
2018-05-24T00:46:54.559Z,16.01
2018-05-24T00:47:54.475Z,15.96
2018-05-24T00:48:54.410Z,15.91
2018-05-24T00:49:54.332Z,15.85
2018-05-24T00:50:54.265Z,15.85
2018-05-24T00:51:54.185Z,15.82
2018-05-24T00:52:54.120Z,15.85
2018-05-24T00:53:54.039Z,15.76
2018-05-24T00:54:53.968Z,15.82
2018-05-24T00:55:53.893Z,15.85
2018-05-24T00:56:53.820Z,15.79
2018-05-24T00:57:53.739Z,15.85
2018-05-24T00:58:53.675Z,15.81
2018-05-24T00:59:53.596Z,15.81
2018-05-24T01:00:53.530Z,15.81
2018-05-24T01:01:53.453Z,15.79
2018-05-24T01:02:53.385Z,15.81
2018-05-24T01:03:53.300Z,15.78
2018-05-24T01:04:53.236Z,15.82
2018-05-24T01:05:53.160Z,15.85
2018-05-24T01:06:53.093Z,15.82
2018-05-24T01:07:53.010Z,15.86
2018-05-24T01:08:52.944Z,15.89
2018-05-24T01:09:52.873Z,15.89
2018-05-24T01:10:52.808Z,15.89
2018-05-24T01:11:52.716Z,15.92
2018-05-24T01:12:52.658Z,15.83
2018-05-24T01:13:52.572Z,15.83
2018-05-24T01:14:52.509Z,15.81
2018-05-24T01:15:52.428Z,15.81
2018-05-24T01:16:52.360Z,15.82
2018-05-24T01:17:52.282Z,15.79
2018-05-24T01:18:52.220Z,15.85
2018-05-24T01:19:52.138Z,15.79
2018-05-24T01:20:52.071Z,15.81
2018-05-24T01:21:51.983Z,15.85
2018-05-24T01:22:51.923Z,15.75
2018-05-24T01:23:51.845Z,15.79
2018-05-24T01:24:51.777Z,15.70
2018-05-24T01:25:51.692Z,15.67
2018-05-24T01:26:51.629Z,15.63
2018-05-24T01:27:51.555Z,15.70
2018-05-24T01:28:51.482Z,15.68
2018-05-24T01:29:51.401Z,15.63
2018-05-24T01:30:51.334Z,15.63
2018-05-24T01:31:51.257Z,15.61
2018-05-24T01:32:51.195Z,15.61
2018-05-24T01:33:51.103Z,15.61
2018-05-24T01:34:51.042Z,15.60
2018-05-24T01:35:50.958Z,15.53
2018-05-24T01:36:50.895Z,15.55
2018-05-24T01:37:50.812Z,15.63
2018-05-24T01:38:50.746Z,15.63
2018-05-24T01:39:50.672Z,15.70
2018-05-24T01:40:50.607Z,15.67
2018-05-24T01:41:50.525Z,15.71
2018-05-24T01:42:51.459Z,15.71
2018-05-24T01:43:50.376Z,15.75
2018-05-24T01:44:50.307Z,15.67
2018-05-24T01:45:50.224Z,15.70
2018-05-24T01:46:50.176Z,15.73
2018-05-24T01:47:50.084Z,15.70
2018-05-24T01:48:50.013Z,15.79
2018-05-24T01:49:49.933Z,15.81
2018-05-24T01:50:49.874Z,15.79
2018-05-24T01:51:49.813Z,15.79
2018-05-24T01:52:49.722Z,15.88
2018-05-24T01:53:49.645Z,15.91
2018-05-24T01:54:49.574Z,15.88
2018-05-24T01:55:49.488Z,15.92
2018-05-24T01:56:49.425Z,15.89
2018-05-24T01:57:49.352Z,15.94
2018-05-24T01:58:49.286Z,15.97
2018-05-24T01:59:49.195Z,16.01
2018-05-24T02:00:49.138Z,16.01
2018-05-24T02:01:49.046Z,16.00
2018-05-24T02:02:48.993Z,15.96
2018-05-24T02:03:48.917Z,16.00
2018-05-24T02:04:48.850Z,15.97
2018-05-24T02:05:48.753Z,16.03
2018-05-24T02:06:48.695Z,16.00
2018-05-24T02:07:48.610Z,16.04
2018-05-24T02:08:48.544Z,15.94
2018-05-24T02:09:48.483Z,15.94
2018-05-24T02:10:48.404Z,15.88
2018-05-24T02:11:48.321Z,15.85
2018-05-24T02:12:48.255Z,15.73
2018-05-24T02:13:48.167Z,15.64
2018-05-24T02:14:48.108Z,15.61
2018-05-24T02:15:48.028Z,15.76
2018-05-24T02:16:47.962Z,15.75
2018-05-24T02:17:47.884Z,15.76
2018-05-24T02:18:47.820Z,15.71
2018-05-24T02:19:47.745Z,15.82
2018-05-24T02:20:47.670Z,15.83
2018-05-24T02:21:47.596Z,15.76
2018-05-24T02:22:47.518Z,15.81
2018-05-24T02:23:47.447Z,15.76
2018-05-24T02:24:47.372Z,15.85
2018-05-24T02:25:47.293Z,15.88
2018-05-24T02:26:47.228Z,15.79
2018-05-24T02:27:47.143Z,15.82
2018-05-24T02:28:47.076Z,15.83
2018-05-24T02:29:46.995Z,15.85
2018-05-24T02:30:46.930Z,15.92
2018-05-24T02:31:46.852Z,15.88
2018-05-24T02:32:46.788Z,15.89
2018-05-24T02:33:46.703Z,15.91
2018-05-24T02:34:46.643Z,15.86
2018-05-24T02:35:46.637Z,15.82
2018-05-24T02:36:46.499Z,15.79
2018-05-24T02:37:46.412Z,15.82
2018-05-24T02:38:46.354Z,15.85
2018-05-24T02:39:46.270Z,15.82
2018-05-24T02:40:46.200Z,15.88
2018-05-24T02:41:46.131Z,15.97
2018-05-24T02:42:46.054Z,15.86
2018-05-24T02:43:45.969Z,15.86
2018-05-24T02:44:45.919Z,15.91
2018-05-24T02:45:45.832Z,16.00
2018-05-24T02:46:45.758Z,15.96
2018-05-24T02:47:45.693Z,16.01
2018-05-24T02:48:45.620Z,16.00
2018-05-24T02:49:45.546Z,15.83
2018-05-24T02:50:45.483Z,15.83
2018-05-24T02:51:45.399Z,15.99
2018-05-24T02:52:45.333Z,15.88
2018-05-24T02:53:45.243Z,15.86
2018-05-24T02:54:45.168Z,15.82
2018-05-24T02:55:45.102Z,15.85
2018-05-24T02:56:45.023Z,15.82
2018-05-24T02:57:44.940Z,15.75
2018-05-24T02:58:44.875Z,15.73
2018-05-24T02:59:44.795Z,15.78
2018-05-24T03:00:44.727Z,15.85
2018-05-24T03:01:44.677Z,15.86
2018-05-24T03:02:44.588Z,15.86
2018-05-24T03:03:44.506Z,15.89
2018-05-24T03:04:44.431Z,15.88
2018-05-24T03:05:44.353Z,15.89
2018-05-24T03:06:44.299Z,15.96
2018-05-24T03:07:44.213Z,15.97
2018-05-24T03:08:45.144Z,15.96
2018-05-24T03:09:44.068Z,16.00
2018-05-24T03:10:43.998Z,16.06
2018-05-24T03:11:43.933Z,16.07
2018-05-24T03:12:43.848Z,16.00
2018-05-24T03:13:43.768Z,16.00
2018-05-24T03:14:43.711Z,16.07
2018-05-24T03:15:43.622Z,16.15
2018-05-24T03:16:43.553Z,16.12
2018-05-24T03:17:43.468Z,16.06
2018-05-24T03:18:43.414Z,16.14
2018-05-24T03:19:43.335Z,16.07
2018-05-24T03:20:43.261Z,16.08
2018-05-24T03:21:43.175Z,16.08
2018-05-24T03:22:43.115Z,16.06
2018-05-24T03:23:43.037Z,16.07
2018-05-24T03:24:42.974Z,16.10
2018-05-24T03:25:42.892Z,16.12
2018-05-24T03:26:42.823Z,16.07
2018-05-24T03:27:42.738Z,16.08
2018-05-24T03:28:42.675Z,16.15
2018-05-24T03:29:42.594Z,16.10
2018-05-24T03:30:42.528Z,16.12
2018-05-24T03:31:42.447Z,16.06
2018-05-24T03:32:42.384Z,16.16
2018-05-24T03:33:42.317Z,16.16
2018-05-24T03:34:42.235Z,16.07
2018-05-24T03:35:42.158Z,16.12
2018-05-24T03:36:42.089Z,16.03
2018-05-24T03:37:42.013Z,16.08
2018-05-24T03:38:41.942Z,16.18
2018-05-24T03:39:41.865Z,16.07
2018-05-24T03:40:41.794Z,16.10
2018-05-24T03:41:41.712Z,16.10
2018-05-24T03:42:41.647Z,16.04
2018-05-24T03:43:41.571Z,16.04
2018-05-24T03:44:41.500Z,16.07
2018-05-24T03:45:41.419Z,16.04
2018-05-24T03:46:41.364Z,16.10
2018-05-24T03:47:41.274Z,16.03
2018-05-24T03:48:41.209Z,16.01
2018-05-24T03:49:41.126Z,16.07
2018-05-24T03:50:41.059Z,15.94
2018-05-24T03:51:40.976Z,16.01
2018-05-24T03:52:40.921Z,15.96
2018-05-24T03:53:40.838Z,16.07
2018-05-24T03:54:40.767Z,16.01
2018-05-24T03:55:40.691Z,16.04
2018-05-24T03:56:40.618Z,16.15
2018-05-24T03:57:40.603Z,16.16
2018-05-24T03:58:40.480Z,16.08
2018-05-24T03:59:40.391Z,16.14
2018-05-24T04:00:40.327Z,16.12
2018-05-24T04:01:40.247Z,16.10
2018-05-24T04:02:40.183Z,16.12
2018-05-24T04:03:40.100Z,16.01
2018-05-24T04:04:40.033Z,16.07
2018-05-24T04:05:40.032Z,15.94
2018-05-24T04:06:39.887Z,16.00
2018-05-24T04:07:39.808Z,16.04
2018-05-24T04:08:39.747Z,16.03
2018-05-24T04:09:39.666Z,15.97
2018-05-24T04:10:39.601Z,15.78
2018-05-24T04:11:39.516Z,15.85
2018-05-24T04:12:39.455Z,15.81
2018-05-24T04:13:39.372Z,15.70
2018-05-24T04:14:39.299Z,15.78
2018-05-24T04:15:39.222Z,15.75
2018-05-24T04:16:39.155Z,15.70
2018-05-24T04:17:39.077Z,15.83
2018-05-24T04:18:39.010Z,15.81
2018-05-24T04:19:38.931Z,15.85
2018-05-24T04:20:38.867Z,15.79
2018-05-24T04:21:38.781Z,15.85
2018-05-24T04:22:38.717Z,15.79
2018-05-24T04:23:38.635Z,15.68
2018-05-24T04:24:39.574Z,15.78
2018-05-24T04:25:38.487Z,15.76
2018-05-24T04:26:38.432Z,15.79
2018-05-24T04:27:38.347Z,15.83
2018-05-24T04:28:38.277Z,15.79
2018-05-24T04:29:38.194Z,15.82
2018-05-24T04:30:38.125Z,15.94
2018-05-24T04:31:38.050Z,15.88
2018-05-24T04:32:37.982Z,15.94
2018-05-24T04:33:37.905Z,15.89
2018-05-24T04:34:37.835Z,15.85
2018-05-24T04:35:37.752Z,15.91
2018-05-24T04:36:37.699Z,15.91
2018-05-24T04:37:37.616Z,16.00
2018-05-24T04:38:37.629Z,15.96
2018-05-24T04:39:37.460Z,16.01
2018-05-24T04:40:37.441Z,16.06
2018-05-24T04:41:37.312Z,16.01
2018-05-24T04:42:37.247Z,16.01
2018-05-24T04:43:37.164Z,16.07
2018-05-24T04:44:37.100Z,16.03
2018-05-24T04:45:37.025Z,16.03
2018-05-24T04:46:37.989Z,16.03
2018-05-24T04:47:36.872Z,16.03
2018-05-24T04:48:36.888Z,16.06
2018-05-24T04:49:36.724Z,15.94
2018-05-24T04:50:36.687Z,15.86
2018-05-24T04:51:36.577Z,15.81
2018-05-24T04:52:36.512Z,15.85
2018-05-24T04:53:36.430Z,15.71
2018-05-24T04:54:36.409Z,15.75
2018-05-24T04:55:36.288Z,15.73
2018-05-24T04:56:36.327Z,15.61
2018-05-24T04:57:36.144Z,15.64
2018-05-24T04:58:36.127Z,15.60
2018-05-24T04:59:36.000Z,15.46
2018-05-24T05:00:35.937Z,15.51
2018-05-24T05:01:35.914Z,15.55
2018-05-24T05:02:35.842Z,15.55
2018-05-24T05:03:35.693Z,15.55
2018-05-24T05:04:35.651Z,15.57
2018-05-24T05:05:35.548Z,15.59
2018-05-24T05:06:35.568Z,15.57
2018-05-24T05:07:35.405Z,15.57
2018-05-24T05:08:35.377Z,15.53
2018-05-24T05:09:35.324Z,15.61
2018-05-24T05:10:35.281Z,15.63
2018-05-24T05:11:35.598Z,15.60
2018-05-24T05:12:35.100Z,15.70
2018-05-24T05:13:35.014Z,15.71
2018-05-24T05:14:35.053Z,15.71
2018-05-24T05:15:34.818Z,15.68
2018-05-24T05:16:34.822Z,15.67
2018-05-24T05:17:34.679Z,15.81
2018-05-24T05:18:34.619Z,15.82
2018-05-24T05:19:34.582Z,15.83
2018-05-24T05:20:34.533Z,15.81
2018-05-24T05:21:34.372Z,15.81
2018-05-24T05:22:34.341Z,15.70
2018-05-24T05:23:34.220Z,15.79
2018-05-24T05:24:34.252Z,15.73
2018-05-24T05:25:34.079Z,15.68
2018-05-24T05:26:34.057Z,15.78
2018-05-24T05:27:33.928Z,15.81
2018-05-24T05:28:33.974Z,15.73
2018-05-24T05:29:33.791Z,15.78
2018-05-24T05:30:33.880Z,15.82
2018-05-24T05:31:33.642Z,15.82
2018-05-24T05:32:33.586Z,15.67
2018-05-24T05:33:33.495Z,15.61
2018-05-24T05:34:33.494Z,15.66
2018-05-24T05:35:33.357Z,15.60
2018-05-24T05:36:33.316Z,15.53
2018-05-24T05:37:33.210Z,15.59
2018-05-24T05:38:33.217Z,15.51
2018-05-24T05:39:33.054Z,15.49
2018-05-24T05:40:33.026Z,15.53
2018-05-24T05:41:32.914Z,15.49
2018-05-24T05:42:32.947Z,15.48
2018-05-24T05:43:32.753Z,15.46
2018-05-24T05:44:32.748Z,15.38
2018-05-24T05:45:32.606Z,15.49
2018-05-24T05:46:32.563Z,15.52
2018-05-24T05:47:32.460Z,15.45
2018-05-24T05:48:32.467Z,15.52
2018-05-24T05:49:32.319Z,15.61
2018-05-24T05:50:32.274Z,15.61
2018-05-24T05:51:32.172Z,15.60
2018-05-24T05:52:33.207Z,15.68
2018-05-24T05:53:32.022Z,15.78
2018-05-24T05:54:31.999Z,15.71
2018-05-24T05:55:31.873Z,15.78
2018-05-24T05:56:31.902Z,15.70
2018-05-24T05:57:31.723Z,15.73
2018-05-24T05:58:31.715Z,15.73
2018-05-24T05:59:31.580Z,15.70
2018-05-24T06:00:31.520Z,15.73
2018-05-24T06:01:31.522Z,15.78
2018-05-24T06:02:31.431Z,15.68
2018-05-24T06:03:31.287Z,15.71
2018-05-24T06:04:31.241Z,15.78
2018-05-24T06:05:31.140Z,15.73
2018-05-24T06:06:31.155Z,15.66
2018-05-24T06:07:31.002Z,15.67
2018-05-24T06:08:30.964Z,15.63
2018-05-24T06:09:30.847Z,15.63
2018-05-24T06:10:30.883Z,15.64
2018-05-24T06:11:30.703Z,15.66
2018-05-24T06:12:30.693Z,15.64
2018-05-24T06:13:30.547Z,15.66
2018-05-24T06:14:30.596Z,15.68
2018-05-24T06:15:30.430Z,15.78
2018-05-24T06:16:30.397Z,15.73
2018-05-24T06:17:30.261Z,15.73
2018-05-24T06:18:30.212Z,15.76
2018-05-24T06:19:30.106Z,15.82
2018-05-24T06:20:30.176Z,15.70
2018-05-24T06:21:29.974Z,15.73
2018-05-24T06:22:29.930Z,15.70
2018-05-24T06:23:29.835Z,15.79
2018-05-24T06:24:29.843Z,15.78
2018-05-24T06:25:29.666Z,15.82
2018-05-24T06:26:29.648Z,15.82
2018-05-24T06:27:29.520Z,15.75
2018-05-24T06:28:29.594Z,15.76
2018-05-24T06:29:29.376Z,15.79
2018-05-24T06:30:29.369Z,15.75
2018-05-24T06:31:29.237Z,15.83
2018-05-24T06:32:29.177Z,15.79
2018-05-24T06:33:29.078Z,15.81
2018-05-24T06:34:29.088Z,15.75
2018-05-24T06:35:28.927Z,15.85
2018-05-24T06:36:28.894Z,15.83
2018-05-24T06:37:28.784Z,15.81
2018-05-24T06:38:28.807Z,15.82
2018-05-24T06:39:28.648Z,15.82
2018-05-24T06:40:28.636Z,15.79
2018-05-24T06:41:28.494Z,15.81
2018-05-24T06:42:28.526Z,15.85
2018-05-24T06:43:28.338Z,15.81
2018-05-24T06:44:28.333Z,15.76
2018-05-24T06:45:28.196Z,15.79
2018-05-24T06:46:28.206Z,15.76
2018-05-24T06:47:28.046Z,15.79
2018-05-24T06:48:28.054Z,15.71
2018-05-24T06:49:27.899Z,15.81
2018-05-24T06:50:27.871Z,15.79
2018-05-24T06:51:27.755Z,15.78
2018-05-24T06:52:27.688Z,15.70
2018-05-24T06:53:27.610Z,15.75
2018-05-24T06:54:27.583Z,15.68
2018-05-24T06:55:27.461Z,15.75
2018-05-24T06:56:27.385Z,15.75
2018-05-24T06:57:27.311Z,15.79
2018-05-24T06:58:27.236Z,15.71
2018-05-24T06:59:27.174Z,15.75
2018-05-24T07:00:27.110Z,15.71
2018-05-24T07:01:27.024Z,15.76
2018-05-24T07:02:27.022Z,15.79
2018-05-24T07:03:26.869Z,15.71
2018-05-24T07:04:26.830Z,15.81
2018-05-24T07:05:26.719Z,15.78
2018-05-24T07:06:26.737Z,15.81
2018-05-24T07:07:26.577Z,15.83
2018-05-24T07:08:26.549Z,15.88
2018-05-24T07:09:26.432Z,15.86
2018-05-24T07:10:26.461Z,15.99
2018-05-24T07:11:26.285Z,15.91
2018-05-24T07:12:26.268Z,15.86
2018-05-24T07:13:26.144Z,15.86
2018-05-24T07:14:26.077Z,15.88
2018-05-24T07:15:25.988Z,15.91
2018-05-24T07:16:25.989Z,15.88
2018-05-24T07:17:25.843Z,15.97
2018-05-24T07:18:25.832Z,15.89
2018-05-24T07:19:25.699Z,15.89
2018-05-24T07:20:25.726Z,15.96
2018-05-24T07:21:25.549Z,16.00
2018-05-24T07:22:25.518Z,15.96
2018-05-24T07:23:25.399Z,15.91
2018-05-24T07:24:25.452Z,16.01
2018-05-24T07:25:25.258Z,15.96
2018-05-24T07:26:25.242Z,15.96
2018-05-24T07:27:25.109Z,16.07
2018-05-24T07:28:25.149Z,16.03
2018-05-24T07:29:24.966Z,16.07
2018-05-24T07:30:25.334Z,16.01
2018-05-24T07:31:24.815Z,16.01
2018-05-24T07:32:24.766Z,16.00
2018-05-24T07:33:24.666Z,16.04
2018-05-24T07:34:24.675Z,15.97
2018-05-24T07:35:24.529Z,16.07
2018-05-24T07:36:24.481Z,16.00
2018-05-24T07:37:24.375Z,16.03
2018-05-24T07:38:24.394Z,16.08
2018-05-24T07:39:24.228Z,16.00
2018-05-24T07:40:24.204Z,16.06
2018-05-24T07:41:24.079Z,16.01
2018-05-24T07:42:24.112Z,16.12
2018-05-24T07:43:23.934Z,16.08
2018-05-24T07:44:23.924Z,16.08
2018-05-24T07:45:23.790Z,16.07
2018-05-24T07:46:23.743Z,16.16
2018-05-24T07:47:23.635Z,16.26
2018-05-24T07:48:23.645Z,16.23
2018-05-24T07:49:23.495Z,16.20
2018-05-24T07:50:24.485Z,16.18
2018-05-24T07:51:23.342Z,16.22
2018-05-24T07:52:23.363Z,16.14
2018-05-24T07:53:23.190Z,16.27
2018-05-24T07:54:23.177Z,16.12
2018-05-24T07:55:23.055Z,16.16
2018-05-24T07:56:23.081Z,16.16
2018-05-24T07:57:22.901Z,16.27
2018-05-24T07:58:22.888Z,16.18
2018-05-24T07:59:22.763Z,16.27
2018-05-24T08:00:22.693Z,16.22
2018-05-24T08:01:22.618Z,16.22
2018-05-24T08:02:22.622Z,16.27
2018-05-24T08:03:22.465Z,16.37
2018-05-24T08:04:22.421Z,16.37
2018-05-24T08:05:22.317Z,16.37
2018-05-24T08:06:22.337Z,16.34
2018-05-24T08:07:22.173Z,16.33
2018-05-24T08:08:22.135Z,16.38
2018-05-24T08:09:22.022Z,16.45
2018-05-24T08:10:22.059Z,16.40
2018-05-24T08:11:21.882Z,16.44
2018-05-24T08:12:21.861Z,16.50
2018-05-24T08:13:21.726Z,16.48
2018-05-24T08:14:21.773Z,16.52
2018-05-24T08:15:21.583Z,16.56
2018-05-24T08:16:21.583Z,16.60
2018-05-24T08:17:21.441Z,16.65
2018-05-24T08:18:21.391Z,16.66
2018-05-24T08:19:21.294Z,16.67
2018-05-24T08:20:21.308Z,16.65
2018-05-24T08:21:21.150Z,16.80
2018-05-24T08:22:21.112Z,16.77
2018-05-24T08:23:20.998Z,16.90
2018-05-24T08:24:21.024Z,16.80
2018-05-24T08:25:20.850Z,16.96
2018-05-24T08:26:20.829Z,16.96
2018-05-24T08:27:20.702Z,17.03
2018-05-24T08:28:20.736Z,17.14
2018-05-24T08:29:20.557Z,17.14
2018-05-24T08:30:20.546Z,17.07
2018-05-24T08:31:20.416Z,17.14
2018-05-24T08:32:20.455Z,17.17
2018-05-24T08:33:20.269Z,17.03
2018-05-24T08:34:20.264Z,17.13
2018-05-24T08:35:20.119Z,17.11
2018-05-24T08:36:20.079Z,17.13
2018-05-24T08:37:19.983Z,17.07
2018-05-24T08:38:19.988Z,17.10
2018-05-24T08:39:19.829Z,17.11
2018-05-24T08:40:19.801Z,17.08
2018-05-24T08:41:19.692Z,17.13
2018-05-24T08:42:20.193Z,17.07
2018-05-24T08:43:19.547Z,17.11
2018-05-24T08:44:19.514Z,17.14
2018-05-24T08:45:19.395Z,17.18
2018-05-24T08:46:19.431Z,17.29
2018-05-24T08:47:19.320Z,17.43
2018-05-24T08:48:19.235Z,17.55
2018-05-24T08:49:19.120Z,17.82
2018-05-24T08:50:19.144Z,18.00
2018-05-24T08:51:18.971Z,18.14
2018-05-24T08:52:18.955Z,18.28
2018-05-24T08:53:18.859Z,18.42
2018-05-24T08:54:18.789Z,18.55
2018-05-24T08:55:18.671Z,18.58
2018-05-24T08:56:18.692Z,18.69
2018-05-24T08:57:18.544Z,18.80
2018-05-24T08:58:18.509Z,18.89
2018-05-24T08:59:18.386Z,18.77
2018-05-24T09:00:18.396Z,18.86
2018-05-24T09:01:27.461Z,18.95
2018-05-24T09:02:18.204Z,19.05
2018-05-24T09:03:18.129Z,18.97
2018-05-24T09:04:18.129Z,19.01
2018-05-24T09:05:17.973Z,19.06
2018-05-24T09:06:18.969Z,19.13
2018-05-24T09:07:17.811Z,19.13
2018-05-24T09:08:17.834Z,19.24
2018-05-24T09:09:17.665Z,19.39
2018-05-24T09:10:17.665Z,19.40
2018-05-24T09:11:17.536Z,19.42
2018-05-24T09:12:17.567Z,19.33
2018-05-24T09:13:17.388Z,19.39
2018-05-24T09:14:17.374Z,19.31
2018-05-24T09:15:17.244Z,19.25
2018-05-24T09:16:17.295Z,19.28
2018-05-24T09:17:17.095Z,19.25
2018-05-24T09:18:17.088Z,19.23
2018-05-24T09:19:16.954Z,19.21
2018-05-24T09:20:17.088Z,18.97
2018-05-24T09:21:16.808Z,18.80
2018-05-24T09:22:16.806Z,18.79
2018-05-24T09:23:17.207Z,18.92
2018-05-24T09:24:16.620Z,18.92
2018-05-24T09:25:16.521Z,19.11
2018-05-24T09:26:18.593Z,19.17
2018-05-24T09:27:16.394Z,19.21
2018-05-24T09:28:17.358Z,19.28
2018-05-24T09:29:16.252Z,19.36
2018-05-24T09:30:16.246Z,19.63
2018-05-24T09:31:16.110Z,19.60
2018-05-24T09:32:16.056Z,19.68
2018-05-24T09:33:15.970Z,19.88
2018-05-24T09:34:15.972Z,19.95
2018-05-24T09:35:15.828Z,19.95
2018-05-24T09:36:15.817Z,20.15
2018-05-24T09:37:15.673Z,20.23
2018-05-24T09:38:15.685Z,20.34
2018-05-24T09:39:15.555Z,20.62
2018-05-24T09:40:15.497Z,20.50
2018-05-24T09:41:15.417Z,20.40
2018-05-24T09:42:15.464Z,20.33
2018-05-24T09:43:15.274Z,20.42
2018-05-24T09:44:15.208Z,20.49
2018-05-24T09:45:15.116Z,20.57
2018-05-24T09:46:15.117Z,20.62
2018-05-24T09:47:14.975Z,20.66
2018-05-24T09:48:14.944Z,20.56
2018-05-24T09:49:14.828Z,20.62
2018-05-24T09:50:14.872Z,20.86
2018-05-24T09:51:14.702Z,21.01
2018-05-24T09:52:14.654Z,20.99
2018-05-24T09:53:14.562Z,21.17
2018-05-24T09:54:14.559Z,21.09
2018-05-24T09:55:14.424Z,20.91
2018-05-24T09:56:14.371Z,20.69
2018-05-24T09:57:14.274Z,20.76
2018-05-24T09:58:14.292Z,20.69
2018-05-24T09:59:14.143Z,20.62
2018-05-24T10:00:14.100Z,20.49
2018-05-24T10:01:13.996Z,20.53
2018-05-24T10:02:14.009Z,20.75
2018-05-24T10:03:13.869Z,20.84
2018-05-24T10:04:13.803Z,20.91
2018-05-24T10:05:13.727Z,20.96
2018-05-24T10:06:13.726Z,20.86
2018-05-24T10:07:13.597Z,20.93
2018-05-24T10:08:13.644Z,20.93
2018-05-24T10:09:13.444Z,20.80
2018-05-24T10:10:13.448Z,20.65
2018-05-24T10:11:13.315Z,20.68
2018-05-24T10:12:13.364Z,20.65
2018-05-24T10:13:13.168Z,20.66
2018-05-24T10:14:13.167Z,20.66
2018-05-24T10:15:13.043Z,20.51
2018-05-24T10:16:14.017Z,20.51
2018-05-24T10:17:12.913Z,20.50
2018-05-24T10:18:12.885Z,20.51
2018-05-24T10:19:12.762Z,20.43
2018-05-24T10:20:12.802Z,20.31
2018-05-24T10:21:12.612Z,20.51
2018-05-24T10:22:12.607Z,20.50
2018-05-24T10:23:12.491Z,20.43
2018-05-24T10:24:12.515Z,20.54
2018-05-24T10:25:12.337Z,20.50
2018-05-24T10:26:12.323Z,20.42
2018-05-24T10:27:12.212Z,20.37
2018-05-24T10:28:12.231Z,20.40
2018-05-24T10:29:12.077Z,20.40
2018-05-24T10:30:12.043Z,20.37
2018-05-24T10:31:11.935Z,20.43
2018-05-24T10:32:11.962Z,20.42
2018-05-24T10:33:11.775Z,20.42
2018-05-24T10:34:11.760Z,20.38
2018-05-24T10:35:11.667Z,20.56
2018-05-24T10:36:11.674Z,20.53
2018-05-24T10:37:11.503Z,20.68
2018-05-24T10:38:13.184Z,20.50
2018-05-24T10:39:11.369Z,20.54
2018-05-24T10:40:12.419Z,20.53
2018-05-24T10:41:11.244Z,20.59
2018-05-24T10:42:11.221Z,20.43
2018-05-24T10:43:11.088Z,20.47
2018-05-24T10:44:11.110Z,20.50
2018-05-24T10:45:11.053Z,20.50
2018-05-24T10:46:10.927Z,20.62
2018-05-24T10:47:10.817Z,20.51
2018-05-24T10:48:10.824Z,20.59
2018-05-24T10:49:10.683Z,20.64
2018-05-24T10:50:10.646Z,20.49
2018-05-24T10:51:10.587Z,20.49
2018-05-24T10:52:10.558Z,20.38
2018-05-24T10:53:10.411Z,20.28
2018-05-24T10:54:10.382Z,20.26
2018-05-24T10:55:10.261Z,20.30
2018-05-24T10:56:10.356Z,20.26
2018-05-24T10:57:10.125Z,20.23
2018-05-24T10:58:10.080Z,20.19
2018-05-24T10:59:09.980Z,20.18
2018-05-24T11:00:09.989Z,20.13
2018-05-24T11:01:09.850Z,20.13
2018-05-24T11:02:09.816Z,20.16
2018-05-24T11:03:09.825Z,20.13
2018-05-24T11:04:09.706Z,20.08
2018-05-24T11:05:09.579Z,20.15
2018-05-24T11:06:09.514Z,20.10
2018-05-24T11:07:09.433Z,20.08
2018-05-24T11:08:09.436Z,20.03
2018-05-24T11:09:09.304Z,20.00
2018-05-24T11:10:09.254Z,19.94
2018-05-24T11:11:09.156Z,19.90
2018-05-24T11:12:09.150Z,19.93
2018-05-24T11:13:09.013Z,19.97
2018-05-24T11:14:08.957Z,19.95
2018-05-24T11:15:08.878Z,19.90
2018-05-24T11:16:08.888Z,19.82
2018-05-24T11:17:08.742Z,19.86
2018-05-24T11:18:08.684Z,19.86
2018-05-24T11:19:08.606Z,19.73
2018-05-24T11:20:08.545Z,19.76
2018-05-24T11:21:09.477Z,19.69
2018-05-24T11:22:08.408Z,19.65
2018-05-24T11:23:08.309Z,19.68
2018-05-24T11:24:08.312Z,19.63
2018-05-24T11:25:08.250Z,19.50
2018-05-24T11:26:08.231Z,19.51
2018-05-24T11:27:08.046Z,19.53
2018-05-24T11:28:08.041Z,19.57
2018-05-24T11:29:07.902Z,19.57
2018-05-24T11:30:07.940Z,19.48
2018-05-24T11:31:07.758Z,19.50
2018-05-24T11:32:07.752Z,19.48
2018-05-24T11:33:07.620Z,19.50
2018-05-24T11:34:07.649Z,19.50
2018-05-24T11:35:07.474Z,19.55
2018-05-24T11:36:07.472Z,19.55
2018-05-24T11:37:07.423Z,19.45
2018-05-24T11:38:07.378Z,19.42
2018-05-24T11:39:07.182Z,19.40
2018-05-24T11:40:07.184Z,19.40
2018-05-24T11:41:07.058Z,19.38
2018-05-24T11:42:07.103Z,19.32
2018-05-24T11:43:06.941Z,19.28
2018-05-24T11:44:06.902Z,19.35
2018-05-24T11:45:06.761Z,19.36
2018-05-24T11:46:06.815Z,19.35
2018-05-24T11:47:06.629Z,19.39
2018-05-24T11:48:06.630Z,19.32
2018-05-24T11:49:06.490Z,19.28
2018-05-24T11:50:06.449Z,19.28
2018-05-24T11:51:06.355Z,19.24
2018-05-24T11:52:06.344Z,19.25
2018-05-24T11:53:06.210Z,19.27
2018-05-24T11:54:06.151Z,19.27
2018-05-24T11:55:06.072Z,19.33
2018-05-24T11:56:06.072Z,19.35
2018-05-24T11:57:05.928Z,19.35
2018-05-24T11:58:05.875Z,19.31
2018-05-24T11:59:05.782Z,19.28
2018-05-24T12:00:05.781Z,19.32
2018-05-24T12:01:05.650Z,19.17
2018-05-24T12:02:05.590Z,19.18
2018-05-24T12:03:05.492Z,19.06
2018-05-24T12:04:05.501Z,18.95
2018-05-24T12:05:05.359Z,18.98
2018-05-24T12:06:05.318Z,18.97
2018-05-24T12:07:05.295Z,18.97
2018-05-24T12:08:05.221Z,19.02
2018-05-24T12:09:05.074Z,18.86
2018-05-24T12:10:05.040Z,18.84
2018-05-24T12:11:04.931Z,18.73
2018-05-24T12:12:04.935Z,18.62
2018-05-24T12:13:04.793Z,18.44
2018-05-24T12:14:04.762Z,18.40
2018-05-24T12:15:04.690Z,18.47
2018-05-24T12:16:04.660Z,18.35
2018-05-24T12:17:04.518Z,18.49
2018-05-24T12:18:04.476Z,18.58
2018-05-24T12:19:04.373Z,18.62
2018-05-24T12:20:04.378Z,18.57
2018-05-24T12:21:04.219Z,18.68
2018-05-24T12:22:04.195Z,18.80
2018-05-24T12:23:04.087Z,18.87
2018-05-24T12:24:04.105Z,18.89
2018-05-24T12:25:03.938Z,18.99
2018-05-24T12:26:03.917Z,19.11
2018-05-24T12:27:03.801Z,19.06
2018-05-24T12:28:03.825Z,19.15
2018-05-24T12:29:03.712Z,19.06
2018-05-24T12:30:04.661Z,19.01
2018-05-24T12:31:03.525Z,19.06
2018-05-24T12:32:03.534Z,19.13
2018-05-24T12:33:03.372Z,19.15
2018-05-24T12:34:03.354Z,19.39
2018-05-24T12:35:03.247Z,19.51
2018-05-24T12:36:03.275Z,19.45
2018-05-24T12:37:03.096Z,19.55
2018-05-24T12:38:03.078Z,19.64
2018-05-24T12:39:02.963Z,19.76
2018-05-24T12:40:02.996Z,19.88
2018-05-24T12:41:02.826Z,19.78
2018-05-24T12:42:02.789Z,19.73
2018-05-24T12:43:02.703Z,19.68
2018-05-24T12:44:02.697Z,19.75
2018-05-24T12:45:02.538Z,19.73
2018-05-24T12:46:02.503Z,19.82
2018-05-24T12:47:02.392Z,19.73
2018-05-24T12:48:02.419Z,19.71
2018-05-24T12:49:02.287Z,19.65
2018-05-24T12:50:02.231Z,19.60
2018-05-24T12:51:02.124Z,19.42
2018-05-24T12:52:02.144Z,19.50